F/V Argentario — FGPE — position and weather

sailwx.info

Track history (hours):
 
Tides and Currents Weather Stations Pressure Air Temp Water Temp Dewpoint Dewpoint Depression Visibility Wind Speed Wind Dir Waves Ship Positions

F/V Argentario

Last reported at 2015-Jul-26 03:16 UTC. Time now 2015-Jul-30 06:09 UTC.
Position N 47°08' W 003°35'.

Length 22 m; draft 3.4 m.

Type: Fishing. MMSI: 228975000.

Date/timePositionNaut miles runAvg speedWind from/ knotsBaromVisibWave heightAir tempDewpointWater temp
2015-Jul-26 03:16N 47°08' W 003°35'15 1.9
2015-Jul-25 19:27N 47°23' W 003°29'8 9.0
2015-Jul-25 18:33N 47°30' W 003°26'9 9.1
2015-Jul-25 17:33N 47°39' W 003°23'5 4.6
2015-Jul-25 16:33N 47°44' W 003°22'2 2.0
2015-Jul-25 15:33N 47°42' W 003°22'9 9.2
2015-Jul-25 14:33N 47°33' W 003°25'9 9.3
2015-Jul-25 13:33N 47°24' W 003°28'9 9.1
2015-Jul-25 12:33N 47°15' W 003°32'20 0.7
2015-Jul-24 06:30N 46°55' W 003°34'1 1.4
2015-Jul-24 05:32N 46°55' W 003°32'2 1.7
2015-Jul-24 04:33N 46°56' W 003°34'0 0.0
2015-Jul-23 23:33N 46°56' W 003°34'0 0.0
2015-Jul-23 22:33N 46°56' W 003°34'0 0.1
2015-Jul-23 21:33N 46°56' W 003°34'0 0.1
2015-Jul-23 20:16N 46°56' W 003°33'0 0.1
2015-Jul-23 19:30N 46°56' W 003°33'0 0.0
2015-Jul-23 18:33N 46°56' W 003°33'0 0.0
2015-Jul-23 17:24N 46°56' W 003°33'0 0.1
2015-Jul-23 14:09N 46°56' W 003°34'0 0.2
2015-Jul-23 13:33N 46°56' W 003°34'0 0.3
2015-Jul-23 12:22N 46°56' W 003°33'7 1.3
2015-Jul-23 07:19N 46°58' W 003°43'1 1.3
2015-Jul-23 06:29N 46°58' W 003°41'2 1.4
2015-Jul-23 05:18N 46°58' W 003°39'24 3.1
2015-Jul-22 21:32N 47°21' W 003°29'5 4.8
2015-Jul-22 20:33N 47°25' W 003°27'4 4.2
2015-Jul-22 19:33N 47°29' W 003°26'4 4.1
2015-Jul-22 18:33N 47°33' W 003°24'4 4.3
2015-Jul-22 17:33N 47°37' W 003°22'6 6.3
2015-Jul-22 16:33N 47°44' W 003°22'3 3.5
2015-Jul-22 15:33N 47°40' W 003°22'9 8.9
2015-Jul-22 14:33N 47°31' W 003°25'9 9.0
2015-Jul-22 13:33N 47°23' W 003°28'9 9.2
2015-Jul-22 12:33N 47°14' W 003°32'20 2.4
2015-Jul-22 04:21N 46°54' W 003°35'1 1.0
2015-Jul-22 03:17N 46°55' W 003°34'0 0.0
2015-Jul-21 23:25N 46°55' W 003°34'0 0.0
2015-Jul-21 22:19N 46°55' W 003°34'0 0.0
2015-Jul-21 21:31N 46°55' W 003°34'0 0.0
2015-Jul-21 20:31N 46°55' W 003°34'0 0.0
2015-Jul-21 19:28N 46°55' W 003°34'0 0.0
2015-Jul-21 18:25N 46°55' W 003°34'0 0.0
2015-Jul-21 17:28N 46°55' W 003°34'0 0.0
2015-Jul-21 16:13N 46°55' W 003°34'0 0.0
2015-Jul-21 14:31N 46°55' W 003°34'0 0.0
2015-Jul-21 13:31N 46°55' W 003°34'3 3.3
2015-Jul-21 12:34N 46°55' W 003°38'2 2.3
2015-Jul-21 11:34N 46°54' W 003°35'2 1.6
2015-Jul-21 10:33N 46°54' W 003°33'1 1.3
2015-Jul-21 09:33N 46°54' W 003°31'1 1.1
2015-Jul-21 08:33N 46°54' W 003°32'1 1.2
2015-Jul-21 07:33N 46°54' W 003°30'2 1.6
2015-Jul-21 06:33N 46°55' W 003°32'1 1.4
2015-Jul-21 05:29N 46°55' W 003°30'1 0.7
2015-Jul-21 04:17N 46°55' W 003°31'0 0.1
2015-Jul-20 20:17N 46°54' W 003°31'0 0.2
2015-Jul-20 19:26N 46°54' W 003°31'0 0.1
2015-Jul-20 18:23N 46°54' W 003°31'0 0.1
2015-Jul-20 16:08N 46°54' W 003°31'0 0.0
2015-Jul-20 15:20N 46°55' W 003°31'1 1.0
2015-Jul-20 14:32N 46°55' W 003°32'1 0.7
2015-Jul-20 13:32N 46°54' W 003°32'5 4.9
2015-Jul-20 12:33N 46°53' W 003°26'9 8.7
2015-Jul-20 11:33N 46°52' W 003°13'9 9.0
2015-Jul-20 10:33N 46°52' W 002°60'19 8.7
2015-Jul-20 08:25N 46°47' W 002°33'8 8.4
2015-Jul-20 07:31N 46°45' W 002°23'  
2015-Jul-16 23:33N 46°44' W 002°21'4 3.9
2015-Jul-16 22:33N 46°42' W 002°16'5 5.4
2015-Jul-16 21:33N 46°39' W 002°09'5 5.0
2015-Jul-16 20:33N 46°36' W 002°04'5 4.7
2015-Jul-16 19:33N 46°33' W 001°58'5 4.6
2015-Jul-16 18:33N 46°30' W 001°53'4 3.8
2015-Jul-16 17:33N 46°30' W 001°47'2 2.1
2015-Jul-16 16:33N 46°29' W 001°50'10 9.5
2015-Jul-16 15:33N 46°32' W 002°03'68 9.2
2015-Jul-16 08:08N 46°56' W 003°37'5 8.2
2015-Jul-16 07:33N 46°58' W 003°43'3 2.9
2015-Jul-16 06:33N 46°59' W 003°47'2 1.6
2015-Jul-16 05:33N 46°58' W 003°50'1 1.3
2015-Jul-16 04:33N 46°58' W 003°48'2 1.7
2015-Jul-16 03:33N 46°58' W 003°45'  
Track history (hours):
 
Tides and Currents Weather Stations Pressure Air Temp Water Temp Dewpoint Dewpoint Depression Visibility Wind Speed Wind Dir Waves Ship Positions

F/V Argentario

Last reported at 2015-Jul-26 03:16 UTC. Time now 2015-Jul-30 06:09 UTC.
Position N 47°08' W 003°35'.

Length 22 m; draft 3.4 m.

Type: Fishing. MMSI: 228975000.

Date/timePositionNaut miles runAvg speedWind from/ knotsBaromVisibWave heightAir tempDewpointWater temp
2015-Jul-26 03:16N 47°08' W 003°35'15 1.9
2015-Jul-25 19:27N 47°23' W 003°29'8 9.0
2015-Jul-25 18:33N 47°30' W 003°26'9 9.1
2015-Jul-25 17:33N 47°39' W 003°23'5 4.6
2015-Jul-25 16:33N 47°44' W 003°22'2 2.0
2015-Jul-25 15:33N 47°42' W 003°22'9 9.2
2015-Jul-25 14:33N 47°33' W 003°25'9 9.3
2015-Jul-25 13:33N 47°24' W 003°28'9 9.1
2015-Jul-25 12:33N 47°15' W 003°32'20 0.7
2015-Jul-24 06:30N 46°55' W 003°34'1 1.4
2015-Jul-24 05:32N 46°55' W 003°32'2 1.7
2015-Jul-24 04:33N 46°56' W 003°34'0 0.0
2015-Jul-23 23:33N 46°56' W 003°34'0 0.0
2015-Jul-23 22:33N 46°56' W 003°34'0 0.1
2015-Jul-23 21:33N 46°56' W 003°34'0 0.1
2015-Jul-23 20:16N 46°56' W 003°33'0 0.1
2015-Jul-23 19:30N 46°56' W 003°33'0 0.0
2015-Jul-23 18:33N 46°56' W 003°33'0 0.0
2015-Jul-23 17:24N 46°56' W 003°33'0 0.1
2015-Jul-23 14:09N 46°56' W 003°34'0 0.2
2015-Jul-23 13:33N 46°56' W 003°34'0 0.3
2015-Jul-23 12:22N 46°56' W 003°33'7 1.3
2015-Jul-23 07:19N 46°58' W 003°43'1 1.3
2015-Jul-23 06:29N 46°58' W 003°41'2 1.4
2015-Jul-23 05:18N 46°58' W 003°39'24 3.1
2015-Jul-22 21:32N 47°21' W 003°29'5 4.8
2015-Jul-22 20:33N 47°25' W 003°27'4 4.2
2015-Jul-22 19:33N 47°29' W 003°26'4 4.1
2015-Jul-22 18:33N 47°33' W 003°24'4 4.3
2015-Jul-22 17:33N 47°37' W 003°22'6 6.3
2015-Jul-22 16:33N 47°44' W 003°22'3 3.5
2015-Jul-22 15:33N 47°40' W 003°22'9 8.9
2015-Jul-22 14:33N 47°31' W 003°25'9 9.0
2015-Jul-22 13:33N 47°23' W 003°28'9 9.2
2015-Jul-22 12:33N 47°14' W 003°32'20 2.4
2015-Jul-22 04:21N 46°54' W 003°35'1 1.0
2015-Jul-22 03:17N 46°55' W 003°34'0 0.0
2015-Jul-21 23:25N 46°55' W 003°34'0 0.0
2015-Jul-21 22:19N 46°55' W 003°34'0 0.0
2015-Jul-21 21:31N 46°55' W 003°34'0 0.0
2015-Jul-21 20:31N 46°55' W 003°34'0 0.0
2015-Jul-21 19:28N 46°55' W 003°34'0 0.0
2015-Jul-21 18:25N 46°55' W 003°34'0 0.0
2015-Jul-21 17:28N 46°55' W 003°34'0 0.0
2015-Jul-21 16:13N 46°55' W 003°34'0 0.0
2015-Jul-21 14:31N 46°55' W 003°34'0 0.0
2015-Jul-21 13:31N 46°55' W 003°34'3 3.3
2015-Jul-21 12:34N 46°55' W 003°38'2 2.3
2015-Jul-21 11:34N 46°54' W 003°35'2 1.6
2015-Jul-21 10:33N 46°54' W 003°33'1 1.3
2015-Jul-21 09:33N 46°54' W 003°31'1 1.1
2015-Jul-21 08:33N 46°54' W 003°32'1 1.2
2015-Jul-21 07:33N 46°54' W 003°30'2 1.6
2015-Jul-21 06:33N 46°55' W 003°32'1 1.4
2015-Jul-21 05:29N 46°55' W 003°30'1 0.7
2015-Jul-21 04:17N 46°55' W 003°31'0 0.1
2015-Jul-20 20:17N 46°54' W 003°31'0 0.2
2015-Jul-20 19:26N 46°54' W 003°31'0 0.1
2015-Jul-20 18:23N 46°54' W 003°31'0 0.1
2015-Jul-20 16:08N 46°54' W 003°31'0 0.0
2015-Jul-20 15:20N 46°55' W 003°31'1 1.0
2015-Jul-20 14:32N 46°55' W 003°32'1 0.7
2015-Jul-20 13:32N 46°54' W 003°32'5 4.9
2015-Jul-20 12:33N 46°53' W 003°26'9 8.7
2015-Jul-20 11:33N 46°52' W 003°13'9 9.0
2015-Jul-20 10:33N 46°52' W 002°60'19 8.7
2015-Jul-20 08:25N 46°47' W 002°33'8 8.4
2015-Jul-20 07:31N 46°45' W 002°23'  
2015-Jul-16 23:33N 46°44' W 002°21'4 3.9
2015-Jul-16 22:33N 46°42' W 002°16'5 5.4
2015-Jul-16 21:33N 46°39' W 002°09'5 5.0
2015-Jul-16 20:33N 46°36' W 002°04'5 4.7
2015-Jul-16 19:33N 46°33' W 001°58'5 4.6
2015-Jul-16 18:33N 46°30' W 001°53'4 3.8
2015-Jul-16 17:33N 46°30' W 001°47'2 2.1
2015-Jul-16 16:33N 46°29' W 001°50'10 9.5
2015-Jul-16 15:33N 46°32' W 002°03'68 9.2
2015-Jul-16 08:08N 46°56' W 003°37'5 8.2
2015-Jul-16 07:33N 46°58' W 003°43'3 2.9
2015-Jul-16 06:33N 46°59' W 003°47'2 1.6
2015-Jul-16 05:33N 46°58' W 003°50'1 1.3
2015-Jul-16 04:33N 46°58' W 003°48'2 1.7
2015-Jul-16 03:33N 46°58' W 003°45'  

Dump ship's entire track history